createdAt,value
2023-04-25T00:02:14.637Z,100045.09
2023-04-25T00:04:41.493Z,100036.34
2023-04-25T00:07:09.654Z,100060.22
2023-04-25T00:09:36.239Z,100060.22
2023-04-25T00:12:02.884Z,100058.50
2023-04-25T00:14:29.618Z,100066.38
2023-04-25T00:16:56.135Z,100070.88
2023-04-25T00:19:22.693Z,100070.72
2023-04-25T00:21:49.178Z,100079.50
2023-04-25T00:24:16.944Z,100074.88
2023-04-25T00:26:43.383Z,100073.03
2023-04-25T00:29:09.935Z,100064.00
2023-04-25T00:31:36.486Z,100071.19
2023-04-25T00:34:03.105Z,100073.44
2023-04-25T00:36:29.776Z,100073.44
2023-04-25T00:38:56.482Z,100077.25
2023-04-25T00:41:26.000Z,100080.50
2023-04-25T00:43:54.598Z,100081.19
2023-04-25T00:46:21.180Z,100079.19
2023-04-25T00:48:47.668Z,100077.34
2023-04-25T00:51:17.246Z,100081.44
2023-04-25T00:53:46.147Z,100084.00
2023-04-25T00:56:13.157Z,100074.97
2023-04-25T00:58:41.565Z,100078.38
2023-04-25T01:01:08.913Z,100079.22
2023-04-25T01:03:38.283Z,100088.25
2023-04-25T01:06:05.279Z,100089.09
2023-04-25T01:08:32.309Z,100084.59
2023-04-25T01:10:58.855Z,100089.09
2023-04-25T01:13:25.367Z,100091.63
2023-04-25T01:15:53.231Z,100094.84
2023-04-25T01:18:20.191Z,100089.16
2023-04-25T01:20:47.347Z,100089.06
2023-04-25T01:23:15.504Z,100099.50
2023-04-25T01:25:42.183Z,100099.34
2023-04-25T01:28:08.709Z,100100.09
2023-04-25T01:30:35.972Z,100103.72
2023-04-25T01:33:04.572Z,100107.97
2023-04-25T01:35:31.074Z,100106.28
2023-04-25T01:37:57.582Z,100106.28
2023-04-25T01:40:25.703Z,100111.38
2023-04-25T01:42:52.702Z,100107.84
2023-04-25T01:45:19.508Z,100104.44
2023-04-25T01:47:46.190Z,100109.38
2023-04-25T01:50:12.657Z,100106.22
2023-04-25T01:52:39.277Z,100100.75
2023-04-25T01:55:07.087Z,100100.63
2023-04-25T01:57:34.875Z,100096.09
2023-04-25T02:00:03.365Z,100103.72
2023-04-25T02:02:29.956Z,100105.56
2023-04-25T02:04:56.482Z,100098.50
2023-04-25T02:07:23.133Z,100109.09
2023-04-25T02:09:49.634Z,100108.97
2023-04-25T02:12:16.398Z,100115.16
2023-04-25T02:14:44.259Z,100110.66
2023-04-25T02:17:10.792Z,100108.13
2023-04-25T02:19:37.362Z,100109.75
2023-04-25T02:22:03.818Z,100113.44
2023-04-25T02:24:30.322Z,100107.81
2023-04-25T02:26:56.815Z,100105.13
2023-04-25T02:29:24.052Z,100104.88
2023-04-25T02:31:51.886Z,100100.34
2023-04-25T02:34:18.378Z,100100.09
2023-04-25T02:36:44.849Z,100108.13
2023-04-25T02:39:11.432Z,100108.97
2023-04-25T02:41:37.948Z,100115.06
2023-04-25T02:44:04.519Z,100113.34
2023-04-25T02:46:38.827Z,100121.38
2023-04-25T02:49:07.727Z,100132.19
2023-04-25T02:51:34.295Z,100133.88
2023-04-25T02:54:00.831Z,100133.59
2023-04-25T02:56:27.476Z,100139.69
2023-04-25T02:58:54.282Z,100140.53
2023-04-25T03:01:20.829Z,100142.94
2023-04-25T03:03:47.414Z,100148.31
2023-04-25T03:06:15.225Z,100145.75
2023-04-25T03:08:41.678Z,100141.13
2023-04-25T03:11:08.160Z,100143.66
2023-04-25T03:13:34.641Z,100142.69
2023-04-25T03:16:01.280Z,100150.84
2023-04-25T03:18:27.852Z,100151.94
2023-04-25T03:20:54.333Z,100152.63
2023-04-25T03:23:22.217Z,100154.47
2023-04-25T03:25:48.701Z,100151.50
2023-04-25T03:28:15.261Z,100170.13
2023-04-25T03:30:41.707Z,100163.81
2023-04-25T03:33:08.268Z,100170.59
2023-04-25T03:35:34.806Z,100165.34
2023-04-25T03:38:01.308Z,100165.22
2023-04-25T03:40:29.082Z,100166.22
2023-04-25T03:42:55.537Z,100165.22
2023-04-25T03:45:21.989Z,100160.72
2023-04-25T03:47:48.631Z,100166.06
2023-04-25T03:50:15.193Z,100175.78
2023-04-25T03:52:41.694Z,100173.34
2023-04-25T03:55:08.881Z,100177.56
2023-04-25T03:57:36.668Z,100180.72
2023-04-25T04:00:04.174Z,100177.91
2023-04-25T04:02:30.762Z,100169.88
2023-04-25T04:04:57.602Z,100168.91
2023-04-25T04:07:24.274Z,100172.53
2023-04-25T04:09:50.757Z,100165.34
2023-04-25T04:12:17.192Z,100176.94
2023-04-25T04:14:44.936Z,100166.91
2023-04-25T04:17:11.399Z,100175.09
2023-04-25T04:19:37.965Z,100174.91
2023-04-25T04:22:04.646Z,100182.25
2023-04-25T04:24:31.086Z,100176.72
2023-04-25T04:26:57.553Z,100180.13
2023-04-25T04:29:24.017Z,100184.66
2023-04-25T04:31:52.335Z,100187.06
2023-04-25T04:34:19.436Z,100190.44
2023-04-25T04:36:46.376Z,100196.66
2023-04-25T04:39:12.909Z,100192.28
2023-04-25T04:41:39.395Z,100187.91
2023-04-25T04:44:08.329Z,100187.78
2023-04-25T04:46:35.905Z,100190.44
2023-04-25T04:49:03.790Z,100201.56
2023-04-25T04:51:30.350Z,100204.06
2023-04-25T04:53:56.961Z,100198.72
2023-04-25T04:56:23.400Z,100209.13
2023-04-25T04:58:49.945Z,100209.88
2023-04-25T05:01:16.531Z,100213.41
2023-04-25T05:03:43.215Z,100215.09
2023-04-25T05:06:11.184Z,100223.00
2023-04-25T05:08:37.728Z,100220.59
2023-04-25T05:11:04.561Z,100227.53
2023-04-25T05:13:31.053Z,100233.00
2023-04-25T05:15:57.519Z,100238.22
2023-04-25T05:18:24.039Z,100237.97
2023-04-25T05:20:50.514Z,100234.56
2023-04-25T05:23:18.348Z,100237.41
2023-04-25T05:25:44.899Z,100239.84
2023-04-25T05:28:13.357Z,100242.53
2023-04-25T05:30:39.997Z,100251.28
2023-04-25T05:33:06.579Z,100246.63
2023-04-25T05:35:33.085Z,100252.00
2023-04-25T05:37:59.603Z,100243.84
2023-04-25T05:40:27.499Z,100255.41
2023-04-25T05:42:53.946Z,100259.06
2023-04-25T05:45:20.422Z,100266.97
2023-04-25T05:47:46.960Z,100268.66
2023-04-25T05:50:13.493Z,100268.28
2023-04-25T05:52:39.930Z,100273.19
2023-04-25T05:55:07.151Z,100273.13
2023-04-25T05:57:35.060Z,100276.50
2023-04-25T06:00:01.763Z,100269.31
2023-04-25T06:02:28.443Z,100273.72
2023-04-25T06:04:55.167Z,100279.66
2023-04-25T06:07:21.816Z,100276.84
2023-04-25T06:09:48.393Z,100283.19
2023-04-25T06:12:14.814Z,100280.50
2023-04-25T06:14:42.564Z,100278.69
2023-04-25T06:17:09.003Z,100283.91
2023-04-25T06:19:36.612Z,100281.94
2023-04-25T06:22:03.355Z,100286.31
2023-04-25T06:24:29.892Z,100291.81
2023-04-25T06:26:56.434Z,100289.31
2023-04-25T06:29:23.045Z,100288.22
2023-04-25T06:31:50.891Z,100286.22
2023-04-25T06:34:17.571Z,100293.16
2023-04-25T06:36:44.407Z,100289.50
2023-04-25T06:39:11.188Z,100304.47
2023-04-25T06:41:37.769Z,100314.34
2023-04-25T06:44:04.217Z,100321.41
2023-04-25T06:46:30.917Z,100321.41
2023-04-25T06:48:58.769Z,100320.31
2023-04-25T06:51:25.258Z,100309.72
2023-04-25T06:53:51.681Z,100315.94
2023-04-25T06:56:18.150Z,100324.06
2023-04-25T06:58:44.708Z,100323.13
2023-04-25T07:01:11.312Z,100327.16
2023-04-25T07:03:38.049Z,100322.44
2023-04-25T07:06:06.326Z,100327.53
2023-04-25T07:08:32.833Z,100326.41
2023-04-25T07:10:59.405Z,100324.47
2023-04-25T07:13:25.908Z,100328.97
2023-04-25T07:15:52.358Z,100332.38
2023-04-25T07:18:18.797Z,100338.47
2023-04-25T07:20:45.259Z,100335.94
2023-04-25T07:23:13.036Z,100342.84
2023-04-25T07:25:39.473Z,100346.34
2023-04-25T07:28:05.930Z,100347.25
2023-04-25T07:30:32.598Z,100345.50
2023-04-25T07:32:59.249Z,100360.88
2023-04-25T07:35:25.736Z,100363.31
2023-04-25T07:37:52.298Z,100365.16
2023-04-25T07:40:20.193Z,100365.91
2023-04-25T07:42:46.885Z,100370.16
2023-04-25T07:45:13.410Z,100377.22
2023-04-25T07:47:39.975Z,100377.91
2023-04-25T07:50:07.340Z,100370.75
2023-04-25T07:52:33.776Z,100378.66
2023-04-25T07:55:00.266Z,100377.66
2023-04-25T07:57:28.117Z,100384.84
2023-04-25T07:59:54.568Z,100382.06
2023-04-25T08:02:21.197Z,100383.63
2023-04-25T08:04:47.966Z,100382.91
2023-04-25T08:07:15.989Z,100382.06
2023-04-25T08:09:42.726Z,100382.06
2023-04-25T08:12:09.195Z,100387.06
2023-04-25T08:14:37.152Z,100392.94
2023-04-25T08:17:03.767Z,100390.09
2023-04-25T08:19:30.355Z,100392.44
2023-04-25T08:21:56.861Z,100385.09
2023-04-25T08:24:23.538Z,100403.75
2023-04-25T08:26:50.206Z,100392.28
2023-04-25T08:29:16.817Z,100395.72
2023-04-25T08:31:44.797Z,100409.81
2023-04-25T08:34:12.073Z,100400.09
2023-04-25T08:36:40.119Z,100406.19
2023-04-25T08:39:07.001Z,100403.50
2023-04-25T08:41:33.562Z,100416.75
2023-04-25T08:44:00.699Z,100421.25
2023-04-25T08:46:28.206Z,100418.69
2023-04-25T08:48:59.272Z,100420.31
2023-04-25T08:51:27.737Z,100415.81
2023-04-25T08:53:58.598Z,100418.38
2023-04-25T08:56:29.812Z,100421.75
2023-04-25T08:58:57.846Z,100420.66
2023-04-25T09:01:24.820Z,100434.78
2023-04-25T09:03:51.638Z,100441.00
2023-04-25T09:06:20.274Z,100437.34
2023-04-25T09:08:46.927Z,100449.75
2023-04-25T09:11:14.043Z,100446.09
2023-04-25T09:13:40.633Z,100451.34
2023-04-25T09:16:07.183Z,100442.69
2023-04-25T09:18:35.203Z,100447.66
2023-04-25T09:21:13.020Z,100444.88
2023-04-25T09:23:42.924Z,100444.16
2023-04-25T09:26:09.415Z,100446.84
2023-04-25T09:28:36.318Z,100443.19
2023-04-25T09:31:02.781Z,100450.00
2023-04-25T09:33:30.962Z,100445.47
2023-04-25T09:36:03.780Z,100450.75
2023-04-25T09:38:31.639Z,100447.91
2023-04-25T09:41:00.020Z,100449.50
2023-04-25T09:43:26.568Z,100451.94
2023-04-25T09:45:57.501Z,100453.78
2023-04-25T09:48:26.979Z,100459.97
2023-04-25T09:51:05.893Z,100462.66
2023-04-25T09:53:32.445Z,100453.03
2023-04-25T09:56:01.144Z,100454.47
2023-04-25T09:58:32.864Z,100449.00
2023-04-25T10:01:01.937Z,100449.25
2023-04-25T10:03:31.328Z,100460.72
2023-04-25T10:06:00.538Z,100455.59
2023-04-25T10:08:32.493Z,100461.56
2023-04-25T10:11:01.461Z,100451.44
2023-04-25T10:13:29.394Z,100449.03
2023-04-25T10:15:56.363Z,100454.00
2023-04-25T10:18:23.523Z,100450.34
2023-04-25T10:20:50.104Z,100439.63
2023-04-25T10:23:17.732Z,100441.47
2023-04-25T10:25:44.771Z,100437.69
2023-04-25T10:28:12.558Z,100450.25
2023-04-25T10:30:58.138Z,100449.25
2023-04-25T10:33:33.610Z,100443.91
2023-04-25T10:36:08.920Z,100439.28
2023-04-25T10:38:35.481Z,100443.41
2023-04-25T10:41:04.411Z,100456.59
2023-04-25T10:43:37.677Z,100448.16
2023-04-25T10:46:13.967Z,100450.59
2023-04-25T10:48:46.706Z,100450.34
2023-04-25T10:51:17.956Z,100447.56
2023-04-25T10:53:44.901Z,100445.84
2023-04-25T10:56:12.590Z,100452.91
2023-04-25T10:58:45.818Z,100441.97
2023-04-25T11:01:13.721Z,100439.28
2023-04-25T11:03:43.371Z,100439.00
2023-04-25T11:06:21.602Z,100439.97
2023-04-25T11:08:49.858Z,100443.66
2023-04-25T11:11:17.048Z,100436.44
2023-04-25T11:13:44.864Z,100446.09
2023-04-25T11:16:12.989Z,100452.19
2023-04-25T11:18:42.159Z,100451.59
2023-04-25T11:21:08.765Z,100444.41
2023-04-25T11:23:35.461Z,100443.16
2023-04-25T11:26:02.095Z,100440.38
2023-04-25T11:28:28.622Z,100445.59
2023-04-25T11:30:56.906Z,100447.31
2023-04-25T11:33:25.213Z,100438.28
2023-04-25T11:35:55.031Z,100447.19
2023-04-25T11:38:22.555Z,100456.06
2023-04-25T11:40:52.053Z,100453.13
2023-04-25T11:43:21.502Z,100448.75
2023-04-25T11:45:49.224Z,100445.09
2023-04-25T11:48:17.512Z,100442.28
2023-04-25T11:50:44.344Z,100443.16
2023-04-25T11:53:10.961Z,100445.09
2023-04-25T11:55:38.205Z,100444.16
2023-04-25T11:58:05.745Z,100444.00
2023-04-25T12:00:32.940Z,100444.50
2023-04-25T12:02:59.845Z,100457.66
2023-04-25T12:05:33.672Z,100461.16
2023-04-25T12:08:12.345Z,100457.41
2023-04-25T12:10:39.958Z,100456.56
2023-04-25T12:13:20.222Z,100446.69
2023-04-25T12:15:46.982Z,100446.44
2023-04-25T12:18:13.598Z,100454.56
2023-04-25T12:20:42.824Z,100452.63
2023-04-25T12:23:09.478Z,100449.97
2023-04-25T12:25:37.067Z,100451.66
2023-04-25T12:28:12.632Z,100454.19
2023-04-25T12:30:54.277Z,100447.91
2023-04-25T12:33:20.837Z,100451.44
2023-04-25T12:35:48.631Z,100454.13
2023-04-25T12:38:22.787Z,100453.00
2023-04-25T12:40:49.288Z,100449.22
2023-04-25T12:43:15.753Z,100448.22
2023-04-25T12:45:42.228Z,100449.09
2023-04-25T12:48:09.161Z,100448.97
2023-04-25T12:50:35.661Z,100459.53
2023-04-25T12:53:03.466Z,100456.03
2023-04-25T12:55:29.955Z,100462.13
2023-04-25T12:57:56.385Z,100454.06
2023-04-25T13:00:23.116Z,100457.59
2023-04-25T13:02:49.725Z,100450.31
2023-04-25T13:05:16.541Z,100455.56
2023-04-25T13:07:43.020Z,100453.97
2023-04-25T13:10:12.192Z,100448.50
2023-04-25T13:12:38.701Z,100450.06
2023-04-25T13:15:06.188Z,100453.47
2023-04-25T13:17:32.688Z,100450.66
2023-04-25T13:19:59.324Z,100447.13
2023-04-25T13:22:25.814Z,100449.72
2023-04-25T13:24:52.314Z,100452.25
2023-04-25T13:27:20.193Z,100461.88
2023-04-25T13:29:46.691Z,100455.66
2023-04-25T13:32:13.421Z,100453.69
2023-04-25T13:34:40.038Z,100452.84
2023-04-25T13:37:06.555Z,100445.78
2023-04-25T13:39:33.107Z,100449.34
2023-04-25T13:41:59.610Z,100445.84
2023-04-25T13:44:27.395Z,100450.81
2023-04-25T13:46:53.908Z,100447.13
2023-04-25T13:49:20.391Z,100444.06
2023-04-25T13:51:47.007Z,100432.50
2023-04-25T13:54:13.620Z,100427.97
2023-04-25T13:56:40.249Z,100426.03
2023-04-25T13:59:06.816Z,100427.88
2023-04-25T14:01:34.590Z,100418.84
2023-04-25T14:04:01.083Z,100411.66
2023-04-25T14:06:28.125Z,100397.53
2023-04-25T14:08:55.130Z,100397.28
2023-04-25T14:11:21.622Z,100391.78
2023-04-25T14:13:48.400Z,100394.13
2023-04-25T14:16:15.100Z,100403.41
2023-04-25T14:18:42.920Z,100412.19
2023-04-25T14:21:09.865Z,100409.34
2023-04-25T14:23:36.435Z,100406.53
2023-04-25T14:26:03.025Z,100411.66
2023-04-25T14:28:29.475Z,100410.69
2023-04-25T14:30:56.028Z,100413.38
2023-04-25T14:33:22.949Z,100404.19
2023-04-25T14:35:50.759Z,100406.88
2023-04-25T14:38:17.233Z,100419.31
2023-04-25T14:40:43.716Z,100422.13
2023-04-25T14:43:10.141Z,100405.91
2023-04-25T14:45:36.610Z,100411.41
2023-04-25T14:48:03.397Z,100409.50
2023-04-25T14:50:30.021Z,100417.53
2023-04-25T14:52:57.812Z,100414.56
2023-04-25T14:55:24.352Z,100408.25
2023-04-25T14:57:50.933Z,100405.44
2023-04-25T15:00:17.856Z,100414.31
2023-04-25T15:02:44.606Z,100415.91
2023-04-25T15:05:11.445Z,100411.28
2023-04-25T15:07:37.945Z,100403.34
2023-04-25T15:10:06.431Z,100411.13
2023-04-25T15:12:32.945Z,100403.09
2023-04-25T15:14:59.539Z,100409.44
2023-04-25T15:17:25.981Z,100412.84
2023-04-25T15:19:52.441Z,100408.34
2023-04-25T15:22:19.002Z,100408.34
2023-04-25T15:24:45.481Z,100399.44
2023-04-25T15:27:13.450Z,100399.47
2023-04-25T15:29:40.089Z,100406.81
2023-04-25T15:32:06.658Z,100403.84
2023-04-25T15:34:34.739Z,100410.69
2023-04-25T15:37:02.351Z,100407.13
2023-04-25T15:39:28.766Z,100414.06
2023-04-25T15:41:55.259Z,100397.88
2023-04-25T15:44:23.031Z,100402.25
2023-04-25T15:46:49.488Z,100393.47
2023-04-25T15:49:15.954Z,100403.94
2023-04-25T15:51:42.472Z,100398.72
2023-04-25T15:54:08.934Z,100395.91
2023-04-25T15:56:35.424Z,100396.16
2023-04-25T15:59:02.029Z,100394.22
2023-04-25T16:01:30.330Z,100389.75
2023-04-25T16:03:57.156Z,100384.50
2023-04-25T16:06:24.399Z,100380.72
2023-04-25T16:08:51.078Z,100384.97
2023-04-25T16:11:17.644Z,100383.16
2023-04-25T16:13:44.092Z,100388.50
2023-04-25T16:16:10.631Z,100393.63
2023-04-25T16:18:38.432Z,100388.00
2023-04-25T16:21:04.996Z,100388.97
2023-04-25T16:23:31.448Z,100380.22
2023-04-25T16:25:57.887Z,100376.69
2023-04-25T16:28:24.576Z,100379.22
2023-04-25T16:30:51.156Z,100387.28
2023-04-25T16:33:17.738Z,100390.94
2023-04-25T16:35:45.580Z,100387.31
2023-04-25T16:38:12.095Z,100385.63
2023-04-25T16:40:38.612Z,100398.78
2023-04-25T16:43:05.105Z,100386.09
2023-04-25T16:45:31.580Z,100384.25
2023-04-25T16:47:58.104Z,100387.66
2023-04-25T16:50:24.634Z,100382.31
2023-04-25T16:52:52.608Z,100384.84
2023-04-25T16:55:19.280Z,100384.13
2023-04-25T16:57:45.787Z,100392.03
2023-04-25T17:00:13.218Z,100385.84
2023-04-25T17:02:39.835Z,100384.13
2023-04-25T17:05:06.883Z,100377.78
2023-04-25T17:07:33.338Z,100380.31
2023-04-25T17:10:01.282Z,100380.22
2023-04-25T17:12:27.918Z,100385.09
2023-04-25T17:14:54.386Z,100373.34
2023-04-25T17:17:20.849Z,100381.22
2023-04-25T17:19:47.408Z,100372.94
2023-04-25T17:22:13.978Z,100373.78
2023-04-25T17:24:40.928Z,100370.16
2023-04-25T17:27:08.782Z,100367.31
2023-04-25T17:29:35.291Z,100367.31
2023-04-25T17:32:01.892Z,100361.13
2023-04-25T17:34:28.508Z,100369.00
2023-04-25T17:36:54.953Z,100361.84
2023-04-25T17:39:21.394Z,100365.38
2023-04-25T17:41:48.412Z,100363.66
2023-04-25T17:44:16.237Z,100373.66
2023-04-25T17:46:42.759Z,100375.41
2023-04-25T17:49:09.285Z,100366.38
2023-04-25T17:51:35.815Z,100374.19
2023-04-25T17:54:02.301Z,100372.22
2023-04-25T17:56:28.806Z,100370.50
2023-04-25T17:58:55.447Z,100368.72
2023-04-25T18:01:23.806Z,100367.56
2023-04-25T18:03:51.201Z,100374.66
2023-04-25T18:06:18.097Z,100366.63
2023-04-25T18:08:44.919Z,100364.91
2023-04-25T18:11:11.536Z,100360.28
2023-04-25T18:13:38.109Z,100368.31
2023-04-25T18:16:05.063Z,100374.38
2023-04-25T18:18:32.920Z,100376.34
2023-04-25T18:20:59.835Z,100375.41
2023-04-25T18:23:26.360Z,100376.41
2023-04-25T18:25:52.859Z,100373.47
2023-04-25T18:28:19.488Z,100365.44
2023-04-25T18:30:45.953Z,100371.63
2023-04-25T18:33:12.518Z,100367.81
2023-04-25T18:35:45.130Z,100375.88
2023-04-25T18:38:31.724Z,100379.44
2023-04-25T18:41:20.531Z,100378.44
2023-04-25T18:43:47.558Z,100374.06
2023-04-25T18:46:14.112Z,100372.94
2023-04-25T18:48:40.663Z,100375.63
2023-04-25T18:51:08.531Z,100375.63
2023-04-25T18:53:35.147Z,100384.44
2023-04-25T18:56:01.581Z,100390.91
2023-04-25T18:58:28.035Z,100399.69
2023-04-25T19:00:54.532Z,100407.56
2023-04-25T19:03:21.553Z,100404.06
2023-04-25T19:05:48.088Z,100402.81
2023-04-25T19:08:15.853Z,100400.97
2023-04-25T19:10:42.528Z,100393.94
2023-04-25T19:13:09.015Z,100401.81
2023-04-25T19:15:35.553Z,100404.38
2023-04-25T19:18:02.043Z,100409.00
2023-04-25T19:20:28.546Z,100409.88
2023-04-25T19:22:55.071Z,100413.38
2023-04-25T19:25:22.849Z,100418.75
2023-04-25T19:27:49.353Z,100421.13
2023-04-25T19:30:15.900Z,100411.75
2023-04-25T19:32:42.445Z,100416.00
2023-04-25T19:35:11.384Z,100419.38
2023-04-25T19:37:38.613Z,100423.91
2023-04-25T19:40:05.886Z,100431.69
2023-04-25T19:42:33.782Z,100437.78
2023-04-25T19:45:00.277Z,100432.44
2023-04-25T19:47:26.966Z,100438.88
2023-04-25T19:49:53.602Z,100445.09
2023-04-25T19:52:20.501Z,100434.22
2023-04-25T19:54:47.027Z,100443.16
2023-04-25T19:57:13.538Z,100441.31
2023-04-25T19:59:41.281Z,100441.44
2023-04-25T20:02:08.540Z,100443.06
2023-04-25T20:04:35.179Z,100444.88
2023-04-25T20:07:01.683Z,100440.22
2023-04-25T20:12:21.269Z,100447.91
2023-04-25T20:14:49.320Z,100449.72
2023-04-25T20:19:51.316Z,100447.91
2023-04-25T20:22:17.798Z,100447.78
2023-04-25T20:24:44.245Z,100446.78
2023-04-25T20:27:10.761Z,100444.09
2023-04-25T20:29:37.205Z,100449.34
2023-04-25T20:32:05.289Z,100438.75
2023-04-25T20:34:31.960Z,100443.16
2023-04-25T20:36:58.407Z,100444.16
2023-04-25T20:39:24.875Z,100437.81
2023-04-25T20:41:51.427Z,100432.19
2023-04-25T20:44:17.882Z,100438.28
2023-04-25T20:46:44.429Z,100431.25
2023-04-25T20:49:12.211Z,100425.75
2023-04-25T20:51:38.824Z,100425.75
2023-04-25T20:54:05.362Z,100422.06
2023-04-25T20:56:31.901Z,100420.22
2023-04-25T20:58:58.365Z,100427.31
2023-04-25T21:01:24.882Z,100429.16
2023-04-25T21:03:51.792Z,100421.13
2023-04-25T21:06:19.956Z,100422.91
2023-04-25T21:08:46.639Z,100426.38
2023-04-25T21:11:13.176Z,100426.38
2023-04-25T21:13:39.677Z,100420.03
2023-04-25T21:16:06.417Z,100428.81
2023-04-25T21:18:33.018Z,100434.03
2023-04-25T21:20:59.518Z,100435.00
2023-04-25T21:23:27.419Z,100436.59
2023-04-25T21:25:53.865Z,100439.13
2023-04-25T21:28:20.525Z,100437.44
2023-04-25T21:30:47.235Z,100440.81
2023-04-25T21:33:13.871Z,100439.97
2023-04-25T21:35:40.413Z,100437.31
2023-04-25T21:38:06.961Z,100435.59
2023-04-25T21:40:35.269Z,100436.59
2023-04-25T21:43:02.129Z,100435.66
2023-04-25T21:45:28.643Z,100431.00
2023-04-25T21:47:55.183Z,100434.41
2023-04-25T21:50:21.827Z,100428.91
2023-04-25T21:52:48.849Z,100421.63
2023-04-25T21:55:15.780Z,100416.13
2023-04-25T21:57:43.521Z,100416.97
2023-04-25T22:00:10.584Z,100415.16
2023-04-25T22:02:37.127Z,100410.66
2023-04-25T22:05:03.916Z,100420.53
2023-04-25T22:07:30.429Z,100426.72
2023-04-25T22:09:56.846Z,100425.88
2023-04-25T22:12:23.758Z,100422.22
2023-04-25T22:14:51.608Z,100425.38
2023-04-25T22:17:18.123Z,100435.75
2023-04-25T22:19:44.622Z,100441.00
2023-04-25T22:22:11.167Z,100439.78
2023-04-25T22:24:37.631Z,100438.78
2023-04-25T22:27:04.197Z,100432.44
2023-04-25T22:29:30.686Z,100440.38
2023-04-25T22:31:58.597Z,100435.00
2023-04-25T22:34:25.196Z,100430.50
2023-04-25T22:36:51.664Z,100434.03
2023-04-25T22:39:18.152Z,100436.59
2023-04-25T22:41:44.649Z,100435.72
2023-04-25T22:44:11.142Z,100426.72
2023-04-25T22:46:37.674Z,100422.22
2023-04-25T22:49:05.485Z,100431.94
2023-04-25T22:51:32.304Z,100417.75
2023-04-25T22:53:58.901Z,100414.22
2023-04-25T22:56:25.307Z,100414.91
2023-04-25T22:58:52.148Z,100411.16
2023-04-25T23:01:19.388Z,100408.31
2023-04-25T23:03:46.321Z,100402.00
2023-04-25T23:06:14.283Z,100402.84
2023-04-25T23:08:40.753Z,100404.56
2023-04-25T23:11:07.604Z,100407.13
2023-04-25T23:13:34.243Z,100405.41
2023-04-25T23:16:04.998Z,100406.13
2023-04-25T23:18:31.499Z,100404.31
2023-04-25T23:20:57.983Z,100407.13
2023-04-25T23:23:25.748Z,100400.81
2023-04-25T23:25:52.346Z,100401.78
2023-04-25T23:28:18.784Z,100400.69
2023-04-25T23:30:45.403Z,100407.63
2023-04-25T23:33:11.899Z,100412.72
2023-04-25T23:35:38.385Z,100409.06
2023-04-25T23:38:04.877Z,100395.66
2023-04-25T23:40:32.749Z,100389.31
2023-04-25T23:42:59.201Z,100396.41
2023-04-25T23:45:25.650Z,100390.16
2023-04-25T23:47:52.162Z,100387.38
2023-04-25T23:50:18.878Z,100372.16
2023-04-25T23:52:45.305Z,100373.72
2023-04-25T23:55:11.761Z,100380.19
2023-04-25T23:57:39.642Z,100373.03
